Time,TemperatureF,DewpointF,PressureIn,WindDirection,WindDirectionDegrees,WindSpeedMPH,WindSpeedGustMPH,Humidity,HourlyPrecipIn,Conditions,Clouds,dailyrainin,SoftwareType,DateUTC
2013-07-07 00:01:00,61.0,36.0,-100.00,North,-999,0.0,0.0,39,-99.99,,,-99.99,,2013-07-07 07:01:00,
2013-07-07 00:11:00,61.0,37.0,-100.00,North,-999,0.0,0.0,41,-99.99,,,-99.99,,2013-07-07 07:11:00,
2013-07-07 00:22:00,61.0,37.0,-100.00,North,-999,0.0,0.0,41,-99.99,,,-99.99,,2013-07-07 07:22:00,
2013-07-07 00:33:00,62.0,39.0,-100.00,North,-999,0.0,0.0,43,-99.99,,,-99.99,,2013-07-07 07:33:00,
2013-07-07 00:53:00,61.0,40.0,-100.00,North,-999,0.0,0.0,45,-99.99,,,-99.99,,2013-07-07 07:53:00,
2013-07-07 01:02:00,60.0,40.0,-100.00,North,-999,0.0,0.0,47,-99.99,,,-99.99,,2013-07-07 08:02:00,
2013-07-07 01:12:00,58.0,39.0,-100.00,North,-999,0.0,0.0,49,-99.99,,,-99.99,,2013-07-07 08:12:00,
2013-07-07 01:22:00,58.0,39.0,-100.00,North,-999,0.0,0.0,49,-99.99,,,-99.99,,2013-07-07 08:22:00,
2013-07-07 01:33:00,55.0,38.0,-100.00,North,-999,0.0,0.0,53,-99.99,,,-99.99,,2013-07-07 08:33:00,
2013-07-07 01:43:00,54.0,39.0,-100.00,North,-999,0.0,0.0,56,-99.99,,,-99.99,,2013-07-07 08:43:00,
2013-07-07 01:53:00,54.0,39.0,-100.00,North,-999,0.0,0.0,56,-99.99,,,-99.99,,2013-07-07 08:53:00,
2013-07-07 02:02:00,53.0,39.0,-100.00,North,-999,0.0,0.0,59,-99.99,,,-99.99,,2013-07-07 09:02:00,
2013-07-07 02:12:00,52.0,39.0,-100.00,North,-999,0.0,0.0,62,-99.99,,,-99.99,,2013-07-07 09:12:00,
2013-07-07 02:22:00,52.0,39.0,-100.00,North,-999,0.0,0.0,62,-99.99,,,-99.99,,2013-07-07 09:22:00,
2013-07-07 02:34:00,51.0,39.0,-100.00,North,-999,0.0,0.0,64,-99.99,,,-99.99,,2013-07-07 09:34:00,
2013-07-07 02:53:00,50.0,40.0,-100.00,North,-999,0.0,0.0,67,-99.99,,,-99.99,,2013-07-07 09:53:00,
2013-07-07 03:03:00,50.0,40.0,-100.00,North,-999,0.0,0.0,68,-99.99,,,-99.99,,2013-07-07 10:03:00,
2013-07-07 03:12:00,49.0,40.0,-100.00,North,-999,0.0,0.0,71,-99.99,,,-99.99,,2013-07-07 10:12:00,
2013-07-07 03:22:00,49.0,40.0,-100.00,North,-999,0.0,0.0,71,-99.99,,,-99.99,,2013-07-07 10:22:00,
2013-07-07 03:32:00,48.0,40.0,-100.00,North,-999,0.0,0.0,72,-99.99,,,-99.99,,2013-07-07 10:32:00,
2013-07-07 03:43:00,48.0,40.0,-100.00,North,-999,0.0,0.0,74,-99.99,,,-99.99,,2013-07-07 10:43:00,
2013-07-07 03:52:00,48.0,40.0,-100.00,North,-999,0.0,0.0,74,-99.99,,,-99.99,,2013-07-07 10:52:00,
2013-07-07 04:02:00,47.0,40.0,-100.00,North,-999,0.0,0.0,76,-99.99,,,-99.99,,2013-07-07 11:02:00,
2013-07-07 04:11:00,47.0,41.0,-100.00,North,-999,0.0,0.0,78,-99.99,,,-99.99,,2013-07-07 11:11:00,
2013-07-07 04:23:00,47.0,41.0,-100.00,North,-999,0.0,0.0,78,-99.99,,,-99.99,,2013-07-07 11:23:00,
2013-07-07 04:34:00,46.0,40.0,-100.00,North,-999,0.0,0.0,79,-99.99,,,-99.99,,2013-07-07 11:34:00,
2013-07-07 04:43:00,46.0,41.0,-100.00,North,-999,0.0,0.0,81,-99.99,,,-99.99,,2013-07-07 11:43:00,
2013-07-07 04:53:00,46.0,41.0,-100.00,North,-999,0.0,0.0,81,-99.99,,,-99.99,,2013-07-07 11:53:00,
2013-07-07 05:02:00,45.0,41.0,-100.00,North,-999,0.0,0.0,83,-99.99,,,-99.99,,2013-07-07 12:02:00,
2013-07-07 05:11:00,45.0,41.0,-100.00,North,-999,0.0,0.0,85,-99.99,,,-99.99,,2013-07-07 12:11:00,
2013-07-07 05:22:00,45.0,41.0,-100.00,North,-999,0.0,0.0,85,-99.99,,,-99.99,,2013-07-07 12:22:00,
2013-07-07 05:34:00,45.0,41.0,-100.00,North,-999,0.0,0.0,86,-99.99,,,-99.99,,2013-07-07 12:34:00,
2013-07-07 05:43:00,45.0,41.0,-100.00,North,-999,0.0,0.0,86,-99.99,,,-99.99,,2013-07-07 12:43:00,
2013-07-07 05:52:00,45.0,41.0,-100.00,North,-999,0.0,0.0,86,-99.99,,,-99.99,,2013-07-07 12:52:00,
2013-07-07 06:02:00,44.0,41.0,-100.00,North,-999,0.0,0.0,87,-99.99,,,-99.99,,2013-07-07 13:02:00,
2013-07-07 06:11:00,44.0,41.0,-100.00,North,-999,0.0,0.0,87,-99.99,,,-99.99,,2013-07-07 13:11:00,
2013-07-07 06:34:00,44.0,40.0,-100.00,North,-999,0.0,0.0,87,-99.99,,,-99.99,,2013-07-07 13:34:00,
2013-07-07 06:43:00,44.0,41.0,-100.00,North,-999,0.0,0.0,88,-99.99,,,-99.99,,2013-07-07 13:43:00,
2013-07-07 06:52:00,44.0,41.0,-100.00,North,-999,0.0,0.0,88,-99.99,,,-99.99,,2013-07-07 13:52:00,
2013-07-07 07:02:00,45.0,42.0,-100.00,North,-999,0.0,0.0,87,-99.99,,,-99.99,,2013-07-07 14:02:00,
2013-07-07 07:12:00,45.0,42.0,-100.00,North,-999,0.0,0.0,87,-99.99,,,-99.99,,2013-07-07 14:12:00,
2013-07-07 07:22:00,48.0,42.0,-100.00,North,-999,0.0,0.0,81,-99.99,,,-99.99,,2013-07-07 14:22:00,
2013-07-07 08:11:00,56.0,46.0,-100.00,North,-999,0.0,0.0,69,-99.99,,,-99.99,,2013-07-07 15:11:00,
2013-07-07 08:22:00,56.0,46.0,-100.00,North,-999,0.0,0.0,69,-99.99,,,-99.99,,2013-07-07 15:22:00,
2013-07-07 08:33:00,58.0,47.0,-100.00,North,-999,0.0,0.0,67,-99.99,,,-99.99,,2013-07-07 15:33:00,
2013-07-07 08:52:00,60.0,47.0,-100.00,North,-999,0.0,0.0,64,-99.99,,,-99.99,,2013-07-07 15:52:00,
2013-07-07 09:01:00,61.0,46.0,-100.00,North,-999,0.0,0.0,56,-99.99,,,-99.99,,2013-07-07 16:01:00,
2013-07-07 09:11:00,63.0,45.0,-100.00,North,-999,0.0,0.0,52,-99.99,,,-99.99,,2013-07-07 16:11:00,
2013-07-07 09:22:00,63.0,45.0,-100.00,North,-999,0.0,0.0,52,-99.99,,,-99.99,,2013-07-07 16:22:00,
2013-07-07 09:33:00,65.0,44.0,-100.00,North,-999,0.0,0.0,47,-99.99,,,-99.99,,2013-07-07 16:33:00,
2013-07-07 09:43:00,66.0,44.0,-100.00,North,-999,0.0,0.0,45,-99.99,,,-99.99,,2013-07-07 16:43:00,
2013-07-07 09:53:00,66.0,44.0,-100.00,North,-999,0.0,0.0,45,-99.99,,,-99.99,,2013-07-07 16:53:00,
2013-07-07 10:02:00,68.0,43.0,-100.00,North,-999,0.0,0.0,41,-99.99,,,-99.99,,2013-07-07 17:02:00,
2013-07-07 10:12:00,70.0,43.0,-100.00,North,-999,0.0,0.0,37,-99.99,,,-99.99,,2013-07-07 17:12:00,
2013-07-07 10:22:00,70.0,43.0,-100.00,North,-999,0.0,0.0,37,-99.99,,,-99.99,,2013-07-07 17:22:00,
2013-07-07 10:34:00,72.0,43.0,-100.00,North,-999,0.0,0.0,35,-99.99,,,-99.99,,2013-07-07 17:34:00,
2013-07-07 10:43:00,73.0,42.0,-100.00,North,-999,0.0,0.0,33,-99.99,,,-99.99,,2013-07-07 17:43:00,
2013-07-07 10:53:00,73.0,42.0,-100.00,North,-999,0.0,0.0,33,-99.99,,,-99.99,,2013-07-07 17:53:00,
2013-07-07 11:01:00,74.0,43.0,-100.00,North,-999,0.0,0.0,32,-99.99,,,-99.99,,2013-07-07 18:01:00,
2013-07-07 11:11:00,76.0,42.0,-100.00,North,-999,0.0,0.0,30,-99.99,,,-99.99,,2013-07-07 18:11:00,
2013-07-07 11:22:00,76.0,42.0,-100.00,North,-999,0.0,0.0,30,-99.99,,,-99.99,,2013-07-07 18:22:00,
2013-07-07 11:33:00,77.0,43.0,-100.00,North,-999,0.0,0.0,30,-99.99,,,-99.99,,2013-07-07 18:33:00,
2013-07-07 11:43:00,77.0,42.0,-100.00,North,-999,0.0,0.0,29,-99.99,,,-99.99,,2013-07-07 18:43:00,
2013-07-07 11:53:00,77.0,42.0,-100.00,North,-999,0.0,0.0,29,-99.99,,,-99.99,,2013-07-07 18:53:00,
2013-07-07 12:01:00,79.0,43.0,-100.00,North,-999,0.0,0.0,28,-99.99,,,-99.99,,2013-07-07 19:01:00,
2013-07-07 12:11:00,79.0,42.0,-100.00,North,-999,0.0,0.0,27,-99.99,,,-99.99,,2013-07-07 19:11:00,
2013-07-07 12:22:00,79.0,42.0,-100.00,North,-999,0.0,0.0,27,-99.99,,,-99.99,,2013-07-07 19:22:00,
2013-07-07 12:33:00,80.0,42.0,-100.00,North,-999,0.0,0.0,26,-99.99,,,-99.99,,2013-07-07 19:33:00,
2013-07-07 12:54:00,82.0,42.0,-100.00,North,-999,0.0,0.0,24,-99.99,,,-99.99,,2013-07-07 19:54:00,
2013-07-07 13:02:00,81.0,39.0,-100.00,North,-999,0.0,0.0,22,-99.99,,,-99.99,,2013-07-07 20:02:00,
2013-07-07 13:11:00,81.0,39.0,-100.00,North,-999,0.0,0.0,22,-99.99,,,-99.99,,2013-07-07 20:11:00,
2013-07-07 13:22:00,81.0,39.0,-100.00,North,-999,0.0,0.0,22,-99.99,,,-99.99,,2013-07-07 20:22:00,
2013-07-07 13:34:00,84.0,38.0,-100.00,North,-999,0.0,0.0,20,-99.99,,,-99.99,,2013-07-07 20:34:00,
2013-07-07 13:42:00,84.0,37.0,-100.00,North,-999,0.0,0.0,19,-99.99,,,-99.99,,2013-07-07 20:42:00,
2013-07-07 13:53:00,84.0,37.0,-100.00,North,-999,0.0,0.0,19,-99.99,,,-99.99,,2013-07-07 20:53:00,
2013-07-07 14:02:00,83.0,36.0,-100.00,North,-999,0.0,0.0,19,-99.99,,,-99.99,,2013-07-07 21:02:00,
2013-07-07 14:11:00,85.0,38.0,-100.00,North,-999,0.0,0.0,19,-99.99,,,-99.99,,2013-07-07 21:11:00,
2013-07-07 14:22:00,85.0,38.0,-100.00,North,-999,0.0,0.0,19,-99.99,,,-99.99,,2013-07-07 21:22:00,
2013-07-07 14:33:00,85.0,38.0,-100.00,North,-999,0.0,0.0,19,-99.99,,,-99.99,,2013-07-07 21:33:00,
2013-07-07 14:43:00,85.0,38.0,-100.00,North,-999,0.0,0.0,19,-99.99,,,-99.99,,2013-07-07 21:43:00,
2013-07-07 14:53:00,85.0,38.0,-100.00,North,-999,0.0,0.0,19,-99.99,,,-99.99,,2013-07-07 21:53:00,
2013-07-07 15:01:00,86.0,40.0,-100.00,North,-999,0.0,0.0,20,-99.99,,,-99.99,,2013-07-07 22:01:00,
2013-07-07 15:11:00,86.0,40.0,-100.00,North,-999,0.0,0.0,20,-99.99,,,-99.99,,2013-07-07 22:11:00,
2013-07-07 15:22:00,86.0,40.0,-100.00,North,-999,0.0,0.0,20,-99.99,,,-99.99,,2013-07-07 22:22:00,
2013-07-07 15:33:00,86.0,41.0,-100.00,North,-999,0.0,0.0,20,-99.99,,,-99.99,,2013-07-07 22:33:00,
2013-07-07 15:53:00,87.0,41.0,-100.00,North,-999,0.0,0.0,20,-99.99,,,-99.99,,2013-07-07 22:53:00,
2013-07-07 16:01:00,87.0,41.0,-100.00,North,-999,0.0,0.0,20,-99.99,,,-99.99,,2013-07-07 23:01:00,
2013-07-07 16:12:00,87.0,41.0,-100.00,North,-999,0.0,0.0,20,-99.99,,,-99.99,,2013-07-07 23:12:00,
2013-07-07 16:22:00,87.0,41.0,-100.00,North,-999,0.0,0.0,20,-99.99,,,-99.99,,2013-07-07 23:22:00,
2013-07-07 16:33:00,88.0,44.0,-100.00,North,-999,0.0,0.0,21,-99.99,,,-99.99,,2013-07-07 23:33:00,
2013-07-07 16:43:00,87.0,42.0,-100.00,North,-999,0.0,0.0,21,-99.99,,,-99.99,,2013-07-07 23:43:00,
2013-07-07 16:53:00,87.0,42.0,-100.00,North,-999,0.0,0.0,21,-99.99,,,-99.99,,2013-07-07 23:53:00,
2013-07-07 17:01:00,86.0,42.0,-100.00,North,-999,0.0,0.0,21,-99.99,,,-99.99,,2013-07-08 00:01:00,
2013-07-07 17:11:00,86.0,42.0,-100.00,North,-999,0.0,0.0,21,-99.99,,,-99.99,,2013-07-08 00:11:00,
2013-07-07 17:22:00,86.0,41.0,-100.00,North,-999,0.0,0.0,21,-99.99,,,-99.99,,2013-07-08 00:22:00,
2013-07-07 17:33:00,85.0,41.0,-100.00,North,-999,0.0,0.0,21,-99.99,,,-99.99,,2013-07-08 00:33:00,
2013-07-07 17:43:00,85.0,42.0,-100.00,North,-999,0.0,0.0,22,-99.99,,,-99.99,,2013-07-08 00:43:00,
2013-07-07 17:53:00,85.0,42.0,-100.00,North,-999,0.0,0.0,22,-99.99,,,-99.99,,2013-07-08 00:53:00,
2013-07-07 18:01:00,83.0,41.0,-100.00,North,-999,0.0,0.0,23,-99.99,,,-99.99,,2013-07-08 01:01:00,
2013-07-07 18:11:00,83.0,41.0,-100.00,North,-999,0.0,0.0,23,-99.99,,,-99.99,,2013-07-08 01:11:00,
2013-07-07 18:21:00,83.0,41.0,-100.00,North,-999,0.0,0.0,23,-99.99,,,-99.99,,2013-07-08 01:21:00,
2013-07-07 18:32:00,82.0,42.0,-100.00,North,-999,0.0,0.0,24,-99.99,,,-99.99,,2013-07-08 01:32:00,
2013-07-07 18:42:00,81.0,42.0,-100.00,North,-999,0.0,0.0,25,-99.99,,,-99.99,,2013-07-08 01:42:00,
2013-07-07 18:53:00,81.0,42.0,-100.00,North,-999,0.0,0.0,25,-99.99,,,-99.99,,2013-07-08 01:53:00,
2013-07-07 19:02:00,80.0,42.0,-100.00,North,-999,0.0,0.0,26,-99.99,,,-99.99,,2013-07-08 02:02:00,
2013-07-07 19:11:00,78.0,42.0,-100.00,North,-999,0.0,0.0,28,-99.99,,,-99.99,,2013-07-08 02:11:00,
2013-07-07 19:22:00,78.0,42.0,-100.00,North,-999,0.0,0.0,28,-99.99,,,-99.99,,2013-07-08 02:22:00,
2013-07-07 19:33:00,77.0,43.0,-100.00,North,-999,0.0,0.0,29,-99.99,,,-99.99,,2013-07-08 02:33:00,
2013-07-07 19:42:00,76.0,43.0,-100.00,North,-999,0.0,0.0,31,-99.99,,,-99.99,,2013-07-08 02:42:00,
2013-07-07 19:52:00,76.0,43.0,-100.00,North,-999,0.0,0.0,31,-99.99,,,-99.99,,2013-07-08 02:52:00,
2013-07-07 20:01:00,74.0,43.0,-100.00,North,-999,0.0,0.0,32,-99.99,,,-99.99,,2013-07-08 03:01:00,
2013-07-07 20:11:00,73.0,41.0,-100.00,North,-999,0.0,0.0,32,-99.99,,,-99.99,,2013-07-08 03:11:00,
2013-07-07 20:22:00,73.0,41.0,-100.00,North,-999,0.0,0.0,32,-99.99,,,-99.99,,2013-07-08 03:22:00,
2013-07-07 20:34:00,72.0,41.0,-100.00,North,-999,0.0,0.0,32,-99.99,,,-99.99,,2013-07-08 03:34:00,
2013-07-07 20:42:00,71.0,39.0,-100.00,North,-999,0.0,0.0,32,-99.99,,,-99.99,,2013-07-08 03:42:00,
2013-07-07 20:52:00,71.0,39.0,-100.00,North,-999,0.0,0.0,32,-99.99,,,-99.99,,2013-07-08 03:52:00,
2013-07-07 21:01:00,69.0,40.0,-100.00,North,-999,0.0,0.0,35,-99.99,,,-99.99,,2013-07-08 04:01:00,
2013-07-07 21:11:00,68.0,41.0,-100.00,North,-999,0.0,0.0,37,-99.99,,,-99.99,,2013-07-08 04:11:00,
2013-07-07 21:22:00,68.0,41.0,-100.00,North,-999,0.0,0.0,37,-99.99,,,-99.99,,2013-07-08 04:22:00,
2013-07-07 21:33:00,66.0,41.0,-100.00,North,-999,0.0,0.0,39,-99.99,,,-99.99,,2013-07-08 04:33:00,
2013-07-07 21:42:00,65.0,41.0,-100.00,North,-999,0.0,0.0,42,-99.99,,,-99.99,,2013-07-08 04:42:00,
2013-07-07 21:53:00,65.0,41.0,-100.00,North,-999,0.0,0.0,42,-99.99,,,-99.99,,2013-07-08 04:53:00,
2013-07-07 22:01:00,64.0,42.0,-100.00,North,-999,0.0,0.0,45,-99.99,,,-99.99,,2013-07-08 05:01:00,
2013-07-07 22:22:00,63.0,42.0,-100.00,North,-999,0.0,0.0,47,-99.99,,,-99.99,,2013-07-08 05:22:00,
2013-07-07 22:33:00,62.0,44.0,-100.00,North,-999,0.0,0.0,50,-99.99,,,-99.99,,2013-07-08 05:33:00,
2013-07-07 22:43:00,63.0,45.0,-100.00,North,-999,0.0,0.0,52,-99.99,,,-99.99,,2013-07-08 05:43:00,
2013-07-07 22:53:00,63.0,45.0,-100.00,North,-999,0.0,0.0,52,-99.99,,,-99.99,,2013-07-08 05:53:00,
2013-07-07 23:01:00,62.0,44.0,-100.00,North,-999,0.0,0.0,53,-99.99,,,-99.99,,2013-07-08 06:01:00,
2013-07-07 23:11:00,60.0,45.0,-100.00,North,-999,0.0,0.0,58,-99.99,,,-99.99,,2013-07-08 06:11:00,
2013-07-07 23:22:00,60.0,45.0,-100.00,North,-999,0.0,0.0,58,-99.99,,,-99.99,,2013-07-08 06:22:00,
2013-07-07 23:33:00,60.0,46.0,-100.00,North,-999,0.0,0.0,60,-99.99,,,-99.99,,2013-07-08 06:33:00,
2013-07-07 23:42:00,59.0,46.0,-100.00,North,-999,0.0,0.0,63,-99.99,,,-99.99,,2013-07-08 06:42:00,
2013-07-07 23:53:00,59.0,46.0,-100.00,North,-999,0.0,0.0,63,-99.99,,,-99.99,,2013-07-08 06:53:00,